Главная страница
METAR-TAF:

METAR-TAF

Аэропорты :

Триполи, Ливия

широта: 32-54N, долгота: 13-17E, высота над уровнем моря: 11 м

Текущие метеонаблюдения

Эта сводка был подготовлена 53 минут назад, в 21:50 UTC
Ветер 5 Узел от восточный
Температура 24°C
Влажность 78%
Давление 1016 hPa
Видимость: 6000 м
небольшая облачность на высоте 2500 фута

METAR: HLLM 222150Z 09005KT 6000 FEW025 24/20 Q1016

Время: 00:43 (22:43 UTC)

Прогноз

Эта сводка был подготовлена 5 часа и 43 минут назад, в 17:00 UTC
Прогноз действительный с 22-го 18 UTC до 23-го 18 UTC
Ветер 10 Узел от восточно-северо-восточный
Видимость 10 км и более
небольшая облачность на высоте 2500 фута
изменения
С 23-го 00 UTC до 23-го 02 UTC
Ветер 2 Узел переменных направлений
Видимость: 8000 м
изменения
С 23-го 09 UTC до 23-го 11 UTC
Ветер 10 Узел от восточно-северо-восточный

TAF: HLLM 221700Z 2218/2318 07010KT 9999 FEW025 BECMG 2300/2302 VRB02KT 8000 NSC BECMG 2309/2311 06010KT

Метеонаблюдения и прогнозы для более 4000 аэропортов (сводки METAR и TAF).

Имеющиеся станции представлены на карте желтыми и красными точками.

Чтобы увидеть название станции, наведите на нее мышь.

Затем щелкните, чтобы увидеть метеонаблюдения и метеопрогнозы.

Управление картой: чтобы увеличить масштаб, щелкните зеленые кнопки с черным крестиком; чтобы уменьшить масштаб, щелкните зеленую кнопку с тире; для просмотра соседних карт щелкайте зеленые стрелки.


METAR-TAF: